createdAt,value
2023-05-02T00:00:52.910Z,101727.34
2023-05-02T00:03:20.064Z,101726.20
2023-05-02T00:05:47.269Z,101728.22
2023-05-02T00:08:14.339Z,101730.37
2023-05-02T00:10:41.354Z,101733.66
2023-05-02T00:13:08.477Z,101732.21
2023-05-02T00:15:35.772Z,101730.75
2023-05-02T00:18:02.825Z,101730.33
2023-05-02T00:20:29.921Z,101728.40
2023-05-02T00:22:59.744Z,101730.38
2023-05-02T00:25:26.911Z,101734.28
2023-05-02T00:27:54.432Z,101730.02
2023-05-02T00:30:21.685Z,101737.17
2023-05-02T00:32:48.889Z,101739.89
2023-05-02T00:35:16.191Z,101739.23
2023-05-02T00:37:43.277Z,101742.32
2023-05-02T00:40:11.023Z,101746.66
2023-05-02T00:42:38.110Z,101747.06
2023-05-02T00:45:06.897Z,101747.88
2023-05-02T00:47:34.542Z,101748.16
2023-05-02T00:50:02.354Z,101746.10
2023-05-02T00:52:29.755Z,101749.37
2023-05-02T00:54:57.095Z,101746.75
2023-05-02T00:57:25.672Z,101748.05
2023-05-02T00:59:52.883Z,101743.85
2023-05-02T01:02:26.260Z,101745.47
2023-05-02T01:05:06.965Z,101746.77
2023-05-02T01:07:49.174Z,101745.24
2023-05-02T01:10:31.258Z,101746.41
2023-05-02T01:13:26.499Z,101750.39
2023-05-02T01:15:53.829Z,101750.09
2023-05-02T01:18:22.934Z,101750.29
2023-05-02T01:20:54.096Z,101758.48
2023-05-02T01:23:45.932Z,101755.88
2023-05-02T01:26:22.165Z,101755.98
2023-05-02T01:29:05.805Z,101756.83
2023-05-02T01:31:36.045Z,101754.31
2023-05-02T01:34:03.733Z,101755.66
2023-05-02T01:36:32.736Z,101753.77
2023-05-02T01:39:00.827Z,101754.02
2023-05-02T01:41:29.523Z,101749.83
2023-05-02T01:43:58.884Z,101748.29
2023-05-02T01:46:36.971Z,101749.06
2023-05-02T01:49:05.708Z,101755.56
2023-05-02T01:51:34.907Z,101757.61
2023-05-02T01:54:05.836Z,101756.79
2023-05-02T01:56:36.470Z,101757.19
2023-05-02T01:59:21.081Z,101759.61
2023-05-02T02:01:48.187Z,101762.71
2023-05-02T02:04:15.541Z,101763.52
2023-05-02T02:06:44.790Z,101767.15
2023-05-02T02:09:11.955Z,101766.70
2023-05-02T02:11:53.984Z,101767.68
2023-05-02T02:14:22.470Z,101765.45
2023-05-02T02:16:49.670Z,101767.09
2023-05-02T02:19:16.809Z,101769.41
2023-05-02T02:21:44.072Z,101770.99
2023-05-02T02:24:11.217Z,101770.77
2023-05-02T02:26:38.284Z,101777.57
2023-05-02T02:29:05.510Z,101783.13
2023-05-02T02:31:33.949Z,101780.87
2023-05-02T02:34:01.131Z,101786.08
2023-05-02T02:36:48.313Z,101784.77
2023-05-02T02:39:24.322Z,101786.49
2023-05-02T02:42:16.688Z,101790.21
2023-05-02T02:45:17.592Z,101793.75
2023-05-02T02:47:52.213Z,101799.02
2023-05-02T02:50:31.065Z,101798.00
2023-05-02T02:52:58.292Z,101805.69
2023-05-02T02:55:45.625Z,101801.41
2023-05-02T02:58:34.427Z,101804.54
2023-05-02T03:01:03.415Z,101805.45
2023-05-02T03:03:31.606Z,101804.58
2023-05-02T03:05:59.749Z,101804.08
2023-05-02T03:08:27.531Z,101806.45
2023-05-02T03:10:54.702Z,101809.41
2023-05-02T03:13:22.338Z,101810.78
2023-05-02T03:15:54.111Z,101817.98
2023-05-02T03:18:24.763Z,101816.66
2023-05-02T03:20:52.912Z,101817.64
2023-05-02T03:23:20.439Z,101824.92
2023-05-02T03:25:48.358Z,101825.92
2023-05-02T03:28:16.189Z,101822.56
2023-05-02T03:30:43.962Z,101827.55
2023-05-02T03:33:11.287Z,101828.94
2023-05-02T03:35:39.771Z,101829.71
2023-05-02T03:38:06.983Z,101831.30
2023-05-02T03:40:34.332Z,101833.40
2023-05-02T03:43:01.687Z,101836.41
2023-05-02T03:45:29.466Z,101838.17
2023-05-02T03:47:57.092Z,101840.84
2023-05-02T03:50:24.430Z,101839.08
2023-05-02T03:52:51.547Z,101838.16
2023-05-02T03:55:19.326Z,101843.09
2023-05-02T03:57:46.743Z,101846.41
2023-05-02T04:00:14.260Z,101850.36
2023-05-02T04:02:45.379Z,101847.81
2023-05-02T04:05:15.501Z,101847.34
2023-05-02T04:07:42.850Z,101854.04
2023-05-02T04:10:16.503Z,101853.06
2023-05-02T04:12:47.025Z,101856.45
2023-05-02T04:15:15.463Z,101856.95
2023-05-02T04:17:42.992Z,101860.39
2023-05-02T04:20:11.446Z,101863.34
2023-05-02T04:22:40.350Z,101862.02
2023-05-02T04:25:07.996Z,101863.86
2023-05-02T04:27:36.993Z,101864.36
2023-05-02T04:30:04.581Z,101863.52
2023-05-02T04:32:32.756Z,101858.14
2023-05-02T04:35:00.639Z,101856.86
2023-05-02T04:37:27.982Z,101862.21
2023-05-02T04:39:55.759Z,101858.80
2023-05-02T04:42:25.827Z,101863.63
2023-05-02T04:45:10.483Z,101869.88
2023-05-02T04:47:37.910Z,101868.38
2023-05-02T04:50:07.409Z,101868.05
2023-05-02T04:52:35.833Z,101873.80
2023-05-02T04:55:02.876Z,101877.69
2023-05-02T04:57:30.170Z,101878.94
2023-05-02T04:59:59.626Z,101878.46
2023-05-02T05:02:27.452Z,101881.07
2023-05-02T05:04:55.405Z,101884.41
2023-05-02T05:07:22.861Z,101885.33
2023-05-02T05:09:56.649Z,101887.73
2023-05-02T05:12:25.970Z,101888.27
2023-05-02T05:14:54.238Z,101890.60
2023-05-02T05:17:23.726Z,101894.48
2023-05-02T05:19:51.841Z,101898.58
2023-05-02T05:22:23.192Z,101902.82
2023-05-02T05:24:56.899Z,101901.09
2023-05-02T05:27:29.292Z,101899.21
2023-05-02T05:29:56.573Z,101902.70
2023-05-02T05:32:25.985Z,101908.26
2023-05-02T05:34:54.123Z,101914.41
2023-05-02T05:37:23.055Z,101913.08
2023-05-02T05:39:50.746Z,101909.88
2023-05-02T05:42:18.891Z,101908.48
2023-05-02T05:44:49.580Z,101911.91
2023-05-02T05:47:23.681Z,101912.48
2023-05-02T05:49:55.540Z,101914.73
2023-05-02T05:52:25.420Z,101916.75
2023-05-02T05:54:55.956Z,101912.81
2023-05-02T05:57:25.019Z,101918.16
2023-05-02T05:59:53.526Z,101918.23
2023-05-02T06:02:21.271Z,101916.65
2023-05-02T06:04:50.189Z,101915.06
2023-05-02T06:07:20.536Z,101922.29
2023-05-02T06:09:47.673Z,101923.91
2023-05-02T06:12:16.596Z,101927.86
2023-05-02T06:14:44.114Z,101930.80
2023-05-02T06:17:12.765Z,101934.41
2023-05-02T06:19:39.891Z,101935.63
2023-05-02T06:22:07.209Z,101939.40
2023-05-02T06:24:34.813Z,101942.09
2023-05-02T06:27:02.643Z,101940.06
2023-05-02T06:29:29.739Z,101942.61
2023-05-02T06:31:57.405Z,101938.05
2023-05-02T06:34:24.648Z,101940.45
2023-05-02T06:36:58.246Z,101938.52
2023-05-02T06:39:28.686Z,101943.29
2023-05-02T06:42:01.799Z,101946.15
2023-05-02T06:44:34.130Z,101947.98
2023-05-02T06:47:01.990Z,101950.20
2023-05-02T06:49:29.037Z,101950.56
2023-05-02T06:51:56.699Z,101950.52
2023-05-02T06:54:23.842Z,101951.67
2023-05-02T06:56:51.087Z,101957.48
2023-05-02T06:59:19.064Z,101954.77
2023-05-02T07:01:46.590Z,101957.60
2023-05-02T07:04:13.792Z,101961.21
2023-05-02T07:06:41.017Z,101963.11
2023-05-02T07:09:08.089Z,101960.47
2023-05-02T07:11:35.083Z,101958.45
2023-05-02T07:14:02.348Z,101967.27
2023-05-02T07:16:29.433Z,101971.95
2023-05-02T07:18:56.567Z,101973.77
2023-05-02T07:21:23.839Z,101976.74
2023-05-02T07:23:50.894Z,101976.00
2023-05-02T07:26:19.111Z,101977.88
2023-05-02T07:28:46.179Z,101978.33
2023-05-02T07:31:13.295Z,101978.75
2023-05-02T07:33:40.321Z,101978.70
2023-05-02T07:36:07.401Z,101985.91
2023-05-02T07:38:34.505Z,101984.10
2023-05-02T07:41:01.538Z,101985.98
2023-05-02T07:43:28.634Z,101983.30
2023-05-02T07:45:56.342Z,101985.29
2023-05-02T07:48:24.112Z,101984.54
2023-05-02T07:50:52.484Z,101983.65
2023-05-02T07:53:19.704Z,101989.84
2023-05-02T07:55:46.774Z,101990.86
2023-05-02T07:58:13.771Z,101992.25
2023-05-02T08:00:40.737Z,101994.52
2023-05-02T08:03:08.061Z,101993.64
2023-05-02T08:05:35.350Z,101994.23
2023-05-02T08:08:02.898Z,101989.98
2023-05-02T08:10:29.956Z,101991.11
2023-05-02T08:12:57.178Z,101994.61
2023-05-02T08:15:24.224Z,101996.90
2023-05-02T08:17:51.451Z,101997.55
2023-05-02T08:20:19.169Z,102003.83
2023-05-02T08:22:46.319Z,102005.26
2023-05-02T08:25:13.407Z,102009.59
2023-05-02T08:27:40.505Z,102008.29
2023-05-02T08:30:10.389Z,102006.16
2023-05-02T08:32:37.950Z,102001.72
2023-05-02T08:35:05.411Z,102002.91
2023-05-02T08:37:32.483Z,102002.29
2023-05-02T08:40:00.991Z,101998.52
2023-05-02T08:42:29.209Z,102001.89
2023-05-02T08:44:56.336Z,102002.48
2023-05-02T08:47:23.430Z,101998.97
2023-05-02T08:49:50.798Z,101998.53
2023-05-02T08:52:17.901Z,101996.73
2023-05-02T08:54:44.886Z,101996.78
2023-05-02T08:57:12.075Z,102002.02
2023-05-02T08:59:39.697Z,101996.43
2023-05-02T09:02:15.891Z,101998.64
2023-05-02T09:04:43.285Z,101996.63
2023-05-02T09:07:11.000Z,101995.52
2023-05-02T09:09:38.165Z,101993.44
2023-05-02T09:12:05.415Z,101994.02
2023-05-02T09:14:32.953Z,101994.53
2023-05-02T09:17:01.231Z,101993.04
2023-05-02T09:19:28.333Z,101995.95
2023-05-02T09:22:01.901Z,101997.28
2023-05-02T09:24:29.845Z,101996.95
2023-05-02T09:27:04.340Z,101990.04
2023-05-02T09:29:36.527Z,101990.50
2023-05-02T09:32:04.316Z,101991.61
2023-05-02T09:34:31.742Z,101992.11
2023-05-02T09:36:58.825Z,101991.56
2023-05-02T09:39:29.388Z,101991.92
2023-05-02T09:41:57.264Z,101991.27
2023-05-02T09:44:36.303Z,101995.55
2023-05-02T09:47:03.314Z,101997.09
2023-05-02T09:49:50.781Z,101996.38
2023-05-02T09:52:21.752Z,102000.61
2023-05-02T09:54:50.825Z,101999.23
2023-05-02T09:57:17.825Z,101993.02
2023-05-02T09:59:58.155Z,101986.33
2023-05-02T10:02:25.637Z,101985.98
2023-05-02T10:04:54.088Z,101988.20
2023-05-02T10:07:21.254Z,101991.17
2023-05-02T10:09:48.463Z,101993.12
2023-05-02T10:12:15.724Z,101989.16
2023-05-02T10:14:46.415Z,101991.92
2023-05-02T10:17:16.752Z,101993.48
2023-05-02T10:19:57.254Z,101991.55
2023-05-02T10:22:25.111Z,101985.25
2023-05-02T10:24:52.635Z,101987.40
2023-05-02T10:27:20.313Z,101979.70
2023-05-02T10:29:47.438Z,101980.33
2023-05-02T10:32:15.365Z,101979.35
2023-05-02T10:34:42.488Z,101982.66
2023-05-02T10:37:09.628Z,101979.80
2023-05-02T10:39:36.807Z,101974.55
2023-05-02T10:42:03.970Z,101979.60
2023-05-02T10:44:39.676Z,101981.20
2023-05-02T10:47:22.733Z,101980.10
2023-05-02T10:49:55.473Z,101980.59
2023-05-02T10:52:33.376Z,101981.84
2023-05-02T10:55:20.172Z,101980.80
2023-05-02T10:57:59.557Z,101984.99
2023-05-02T11:00:31.037Z,101986.23
2023-05-02T11:02:59.152Z,101994.58
2023-05-02T11:05:26.873Z,101996.40
2023-05-02T11:08:15.993Z,101990.00
2023-05-02T11:10:43.701Z,101991.13
2023-05-02T11:13:11.024Z,101989.98
2023-05-02T11:15:41.056Z,101990.42
2023-05-02T11:18:13.057Z,101987.77
2023-05-02T11:20:44.156Z,101987.35
2023-05-02T11:23:14.364Z,101989.98
2023-05-02T11:25:45.477Z,101990.02
2023-05-02T11:28:39.966Z,101987.02
2023-05-02T11:31:30.881Z,101987.98
2023-05-02T11:33:58.278Z,101990.37
2023-05-02T11:36:33.728Z,101986.67
2023-05-02T11:39:05.504Z,101987.98
2023-05-02T11:41:42.311Z,101983.73
2023-05-02T11:44:09.577Z,101982.80
2023-05-02T11:46:37.452Z,101981.70
2023-05-02T11:49:06.201Z,101980.22
2023-05-02T11:51:35.540Z,101982.85
2023-05-02T11:54:03.597Z,101978.85
2023-05-02T11:56:30.716Z,101984.10
2023-05-02T11:59:02.013Z,101985.34
2023-05-02T12:01:29.139Z,101983.02
2023-05-02T12:04:07.916Z,101986.50
2023-05-02T12:06:35.743Z,101986.38
2023-05-02T12:09:16.300Z,101986.99
2023-05-02T12:11:43.504Z,101983.05
2023-05-02T12:14:11.205Z,101980.73
2023-05-02T12:16:38.657Z,101974.52
2023-05-02T12:19:05.881Z,101971.89
2023-05-02T12:21:33.612Z,101974.08
2023-05-02T12:24:03.889Z,101969.77
2023-05-02T12:26:32.961Z,101968.20
2023-05-02T12:29:02.265Z,101968.32
2023-05-02T12:31:31.611Z,101968.18
2023-05-02T12:34:00.561Z,101971.11
2023-05-02T12:36:31.075Z,101966.45
2023-05-02T12:39:02.316Z,101967.54
2023-05-02T12:41:37.208Z,101965.52
2023-05-02T12:44:05.030Z,101961.61
2023-05-02T12:46:32.650Z,101955.10
2023-05-02T12:49:09.669Z,101955.85
2023-05-02T12:51:37.111Z,101949.64
2023-05-02T12:54:04.906Z,101949.77
2023-05-02T12:56:39.378Z,101951.27
2023-05-02T12:59:08.123Z,101951.11
2023-05-02T13:01:35.666Z,101954.65
2023-05-02T13:04:03.324Z,101954.27
2023-05-02T13:06:30.433Z,101950.71
2023-05-02T13:08:58.172Z,101952.19
2023-05-02T13:11:25.534Z,101954.70
2023-05-02T13:13:53.731Z,101953.63
2023-05-02T13:16:21.728Z,101951.72
2023-05-02T13:18:49.116Z,101944.79
2023-05-02T13:21:16.399Z,101950.71
2023-05-02T13:23:44.423Z,101944.55
2023-05-02T13:26:11.573Z,101940.45
2023-05-02T13:28:38.701Z,101941.48
2023-05-02T13:31:05.865Z,101939.87
2023-05-02T13:33:33.223Z,101939.05
2023-05-02T13:36:01.944Z,101938.61
2023-05-02T13:38:29.662Z,101945.24
2023-05-02T13:40:56.739Z,101945.05
2023-05-02T13:43:24.605Z,101943.19
2023-05-02T13:45:53.525Z,101942.39
2023-05-02T13:48:21.092Z,101941.05
2023-05-02T13:50:49.155Z,101940.52
2023-05-02T13:53:16.512Z,101938.09
2023-05-02T13:55:43.847Z,101939.70
2023-05-02T13:58:10.907Z,101933.16
2023-05-02T14:00:38.759Z,101933.80
2023-05-02T14:03:05.915Z,101928.41
2023-05-02T14:05:33.095Z,101922.07
2023-05-02T14:08:00.113Z,101923.21
2023-05-02T14:10:27.185Z,101918.35
2023-05-02T14:12:54.494Z,101923.50
2023-05-02T14:15:21.943Z,101918.25
2023-05-02T14:17:50.116Z,101919.41
2023-05-02T14:20:17.322Z,101919.94
2023-05-02T14:22:44.630Z,101921.74
2023-05-02T14:25:13.026Z,101920.45
2023-05-02T14:27:40.119Z,101920.83
2023-05-02T14:30:08.009Z,101918.77
2023-05-02T14:32:35.334Z,101917.80
2023-05-02T14:35:02.844Z,101913.77
2023-05-02T14:37:30.209Z,101915.94
2023-05-02T14:39:59.516Z,101914.13
2023-05-02T14:42:26.846Z,101913.94
2023-05-02T14:44:54.057Z,101916.23
2023-05-02T14:47:21.288Z,101913.92
2023-05-02T14:49:48.639Z,101919.23
2023-05-02T14:52:15.785Z,101918.39
2023-05-02T14:54:42.920Z,101917.07
2023-05-02T14:57:10.184Z,101919.98
2023-05-02T14:59:38.890Z,101916.80
2023-05-02T15:02:06.201Z,101913.90
2023-05-02T15:04:33.521Z,101913.90
2023-05-02T15:07:01.325Z,101916.48
2023-05-02T15:09:29.361Z,101925.79
2023-05-02T15:11:56.880Z,101929.05
2023-05-02T15:14:24.024Z,101928.77
2023-05-02T15:16:51.552Z,101929.21
2023-05-02T15:19:18.644Z,101931.59
2023-05-02T15:21:46.821Z,101932.79
2023-05-02T15:24:15.861Z,101934.61
2023-05-02T15:26:43.513Z,101929.55
2023-05-02T15:29:11.290Z,101930.52
2023-05-02T15:31:39.275Z,101936.05
2023-05-02T15:34:07.126Z,101935.36
2023-05-02T15:36:37.466Z,101935.88
2023-05-02T15:39:05.493Z,101936.21
2023-05-02T15:41:32.701Z,101937.77
2023-05-02T15:44:00.874Z,101938.54
2023-05-02T15:46:29.581Z,101937.00
2023-05-02T15:48:56.837Z,101935.77
2023-05-02T15:51:24.591Z,101937.27
2023-05-02T15:53:52.772Z,101938.31
2023-05-02T15:56:21.689Z,101936.26
2023-05-02T15:58:49.069Z,101940.90
2023-05-02T16:01:16.150Z,101944.01
2023-05-02T16:03:43.713Z,101942.07
2023-05-02T16:06:13.414Z,101941.92
2023-05-02T16:08:40.804Z,101940.02
2023-05-02T16:11:10.216Z,101944.92
2023-05-02T16:13:37.569Z,101942.45
2023-05-02T16:16:05.227Z,101945.65
2023-05-02T16:18:35.364Z,101946.70
2023-05-02T16:21:03.756Z,101947.35
2023-05-02T16:23:57.656Z,101947.70
2023-05-02T16:26:25.401Z,101950.31
2023-05-02T16:28:55.070Z,101948.05
2023-05-02T16:31:22.829Z,101949.09
2023-05-02T16:33:51.081Z,101952.27
2023-05-02T16:36:19.057Z,101953.90
2023-05-02T16:38:47.394Z,101952.38
2023-05-02T16:41:18.227Z,101955.73
2023-05-02T16:43:46.095Z,101951.69
2023-05-02T16:46:14.908Z,101957.48
2023-05-02T16:48:42.499Z,101961.27
2023-05-02T16:51:10.152Z,101961.99
2023-05-02T16:53:37.408Z,101958.41
2023-05-02T16:56:05.756Z,101955.02
2023-05-02T16:58:33.814Z,101961.64
2023-05-02T17:01:11.609Z,101959.40
2023-05-02T17:04:25.515Z,101959.54
2023-05-02T17:06:56.376Z,101962.61
2023-05-02T17:09:26.284Z,101966.41
2023-05-02T17:11:55.274Z,101969.63
2023-05-02T17:14:23.819Z,101971.02
2023-05-02T17:16:53.393Z,101968.14
2023-05-02T17:19:22.478Z,101965.02
2023-05-02T17:21:50.836Z,101964.42
2023-05-02T17:24:18.365Z,101964.73
2023-05-02T17:26:46.965Z,101967.35
2023-05-02T17:29:14.325Z,101966.68
2023-05-02T17:31:41.528Z,101966.77
2023-05-02T17:34:09.180Z,101969.69
2023-05-02T17:36:40.278Z,101971.70
2023-05-02T17:39:08.980Z,101974.33
2023-05-02T17:41:39.245Z,101977.48
2023-05-02T17:44:16.048Z,101977.21
2023-05-02T17:46:44.559Z,101976.60
2023-05-02T17:49:13.353Z,101982.71
2023-05-02T17:51:41.315Z,101984.52
2023-05-02T17:54:08.678Z,101990.61
2023-05-02T17:56:37.706Z,101992.73
2023-05-02T17:59:05.275Z,101995.63
2023-05-02T18:01:32.600Z,101994.30
2023-05-02T18:04:00.882Z,101995.63
2023-05-02T18:06:28.872Z,101999.63
2023-05-02T18:08:56.584Z,102002.69
2023-05-02T18:11:39.412Z,102005.80
2023-05-02T18:14:06.593Z,102004.28
2023-05-02T18:16:39.447Z,102003.44
2023-05-02T18:19:06.886Z,102006.15
2023-05-02T18:21:36.001Z,102005.78
2023-05-02T18:24:03.639Z,102006.86
2023-05-02T18:26:31.983Z,102009.50
2023-05-02T18:29:02.008Z,102006.98
2023-05-02T18:31:31.513Z,102007.65
2023-05-02T18:33:58.932Z,102007.61
2023-05-02T18:36:27.332Z,102006.80
2023-05-02T18:38:55.339Z,102010.08
2023-05-02T18:41:22.722Z,102009.20
2023-05-02T18:43:50.607Z,102011.11
2023-05-02T18:46:18.283Z,102009.86
2023-05-02T18:49:11.449Z,102008.64
2023-05-02T18:51:38.714Z,102010.44
2023-05-02T18:54:06.186Z,102009.11
2023-05-02T18:56:33.487Z,102012.25
2023-05-02T18:59:02.355Z,102014.88
2023-05-02T19:01:30.994Z,102006.85
2023-05-02T19:04:01.588Z,102008.87
2023-05-02T19:06:29.674Z,102006.84
2023-05-02T19:08:57.188Z,102007.48
2023-05-02T19:11:24.981Z,102005.23
2023-05-02T19:13:52.264Z,102003.64
2023-05-02T19:16:22.371Z,102003.95
2023-05-02T19:18:52.517Z,102003.73
2023-05-02T19:21:19.713Z,102007.45
2023-05-02T19:23:47.027Z,102012.11
2023-05-02T19:26:15.002Z,102012.48
2023-05-02T19:28:42.632Z,102012.73
2023-05-02T19:31:13.240Z,102010.70
2023-05-02T19:33:40.723Z,102008.89
2023-05-02T19:36:08.307Z,102004.36
2023-05-02T19:38:36.403Z,102002.15
2023-05-02T19:41:04.699Z,101999.21
2023-05-02T19:43:31.940Z,101999.59
2023-05-02T19:45:59.724Z,101997.29
2023-05-02T19:48:27.628Z,101998.67
2023-05-02T19:50:54.930Z,101994.81
2023-05-02T19:53:25.051Z,101993.98
2023-05-02T19:55:54.061Z,101992.02
2023-05-02T19:58:21.395Z,101990.27
2023-05-02T20:00:52.508Z,101994.38
2023-05-02T20:03:21.071Z,101991.15
2023-05-02T20:05:51.535Z,101987.94
2023-05-02T20:08:19.548Z,101987.65
2023-05-02T20:10:47.893Z,101990.52
2023-05-02T20:13:16.006Z,101991.06
2023-05-02T20:15:43.251Z,101986.90
2023-05-02T20:18:11.767Z,101990.96
2023-05-02T20:20:41.239Z,101986.31
2023-05-02T20:23:08.345Z,101986.77
2023-05-02T20:25:35.766Z,101984.11
2023-05-02T20:28:03.577Z,101986.01
2023-05-02T20:30:31.432Z,101991.67
2023-05-02T20:33:10.582Z,101990.52
2023-05-02T20:35:41.777Z,101991.98
2023-05-02T20:38:08.910Z,101995.15
2023-05-02T20:40:39.032Z,101994.66
2023-05-02T20:43:06.710Z,101998.54
2023-05-02T20:45:34.036Z,101999.86
2023-05-02T20:48:02.554Z,102000.15
2023-05-02T20:50:29.827Z,101997.52
2023-05-02T20:52:57.538Z,101992.09
2023-05-02T20:55:24.837Z,101991.38
2023-05-02T20:57:53.488Z,101996.18
2023-05-02T21:00:22.882Z,101997.23
2023-05-02T21:02:50.637Z,101999.13
2023-05-02T21:05:18.175Z,102004.27
2023-05-02T21:07:45.700Z,102007.27
2023-05-02T21:10:12.945Z,102011.90
2023-05-02T21:12:40.162Z,102012.97
2023-05-02T21:15:08.059Z,102014.42
2023-05-02T21:17:35.342Z,102018.02
2023-05-02T21:20:02.851Z,102012.86
2023-05-02T21:22:30.779Z,102016.11
2023-05-02T21:24:58.170Z,102017.05
2023-05-02T21:27:26.010Z,102018.48
2023-05-02T21:29:53.473Z,102015.33
2023-05-02T21:32:21.280Z,102022.34
2023-05-02T21:34:48.573Z,102022.13
2023-05-02T21:37:16.785Z,102019.04
2023-05-02T21:39:44.046Z,102024.73
2023-05-02T21:42:11.291Z,102022.54
2023-05-02T21:44:38.460Z,102024.92
2023-05-02T21:47:05.922Z,102022.86
2023-05-02T21:49:33.161Z,102016.98
2023-05-02T21:52:00.266Z,102019.11
2023-05-02T21:54:27.430Z,102021.02
2023-05-02T21:56:54.580Z,102018.86
2023-05-02T21:59:21.619Z,102018.02
2023-05-02T22:01:48.995Z,102017.36
2023-05-02T22:04:16.617Z,102021.83
2023-05-02T22:06:48.879Z,102022.13
2023-05-02T22:09:16.105Z,102024.05
2023-05-02T22:11:43.568Z,102022.86
2023-05-02T22:14:11.514Z,102028.33
2023-05-02T22:16:40.706Z,102028.12
2023-05-02T22:19:08.311Z,102033.86
2023-05-02T22:21:36.296Z,102033.77
2023-05-02T22:24:03.582Z,102033.46
2023-05-02T22:26:31.195Z,102035.58
2023-05-02T22:28:58.535Z,102042.27
2023-05-02T22:31:26.892Z,102043.56
2023-05-02T22:33:54.324Z,102044.50
2023-05-02T22:36:21.699Z,102044.00
2023-05-02T22:38:48.904Z,102046.75
2023-05-02T22:41:16.085Z,102053.52
2023-05-02T22:43:43.312Z,102049.46
2023-05-02T22:46:10.632Z,102049.64
2023-05-02T22:48:37.984Z,102044.27
2023-05-02T22:51:05.809Z,102049.40
2023-05-02T22:53:33.482Z,102047.64
2023-05-02T22:56:00.836Z,102053.40
2023-05-02T22:58:28.390Z,102053.95
2023-05-02T23:00:55.877Z,102055.02
2023-05-02T23:03:25.070Z,102061.40
2023-05-02T23:05:53.057Z,102060.23
2023-05-02T23:08:20.269Z,102055.94
2023-05-02T23:10:47.708Z,102056.13
2023-05-02T23:13:14.954Z,102054.86
2023-05-02T23:15:42.340Z,102053.08
2023-05-02T23:18:09.838Z,102050.75
2023-05-02T23:20:37.442Z,102050.77
2023-05-02T23:23:04.796Z,102047.74
2023-05-02T23:25:32.360Z,102048.31
2023-05-02T23:27:59.558Z,102045.20
2023-05-02T23:30:26.834Z,102046.88
2023-05-02T23:32:56.279Z,102045.71
2023-05-02T23:35:23.686Z,102047.39
2023-05-02T23:37:51.347Z,102047.71
2023-05-02T23:40:19.802Z,102040.72
2023-05-02T23:42:46.977Z,102036.84
2023-05-02T23:45:14.170Z,102039.42
2023-05-02T23:47:41.793Z,102039.30
2023-05-02T23:50:09.772Z,102037.80
2023-05-02T23:52:37.375Z,102037.95
2023-05-02T23:55:10.645Z,102034.92
2023-05-02T23:57:38.646Z,102037.40
